sensor_id;sensor_type;location;lat;lon;timestamp;P1;durP1;ratioP1;P2;durP2;ratioP2
64932;SDS011;51446;53.850;10.662;2022-10-26T00:00:23;15.88;;;9.02;;
64932;SDS011;51446;53.850;10.662;2022-10-26T00:02:49;12.50;;;8.30;;
64932;SDS011;51446;53.850;10.662;2022-10-26T00:05:15;15.80;;;8.00;;
64932;SDS011;51446;53.850;10.662;2022-10-26T00:07:40;14.93;;;7.83;;
64932;SDS011;51446;53.850;10.662;2022-10-26T00:10:05;14.07;;;8.33;;
64932;SDS011;51446;53.850;10.662;2022-10-26T00:12:31;15.23;;;8.23;;
64932;SDS011;51446;53.850;10.662;2022-10-26T00:14:56;11.87;;;8.17;;
64932;SDS011;51446;53.850;10.662;2022-10-26T00:17:21;16.10;;;8.70;;
64932;SDS011;51446;53.850;10.662;2022-10-26T00:19:46;13.37;;;8.27;;
64932;SDS011;51446;53.850;10.662;2022-10-26T00:22:12;19.00;;;8.27;;
64932;SDS011;51446;53.850;10.662;2022-10-26T00:24:37;11.47;;;7.87;;
64932;SDS011;51446;53.850;10.662;2022-10-26T00:27:03;12.37;;;7.33;;
64932;SDS011;51446;53.850;10.662;2022-10-26T00:29:28;10.85;;;7.18;;
64932;SDS011;51446;53.850;10.662;2022-10-26T00:31:53;14.07;;;8.13;;
64932;SDS011;51446;53.850;10.662;2022-10-26T00:34:19;12.67;;;7.87;;
64932;SDS011;51446;53.850;10.662;2022-10-26T00:36:44;12.53;;;7.50;;
64932;SDS011;51446;53.850;10.662;2022-10-26T00:39:09;13.83;;;7.83;;
64932;SDS011;51446;53.850;10.662;2022-10-26T00:41:36;12.25;;;7.20;;
64932;SDS011;51446;53.850;10.662;2022-10-26T00:44:37;11.17;;;7.20;;
64932;SDS011;51446;53.850;10.662;2022-10-26T00:47:08;12.32;;;7.35;;
64932;SDS011;51446;53.850;10.662;2022-10-26T00:49:35;9.75;;;7.20;;
64932;SDS011;51446;53.850;10.662;2022-10-26T00:52:01;13.07;;;7.57;;
64932;SDS011;51446;53.850;10.662;2022-10-26T00:54:26;10.27;;;7.03;;
64932;SDS011;51446;53.850;10.662;2022-10-26T00:56:51;11.73;;;6.43;;
64932;SDS011;51446;53.850;10.662;2022-10-26T00:59:19;10.98;;;6.88;;
64932;SDS011;51446;53.850;10.662;2022-10-26T01:01:46;11.82;;;7.72;;
64932;SDS011;51446;53.850;10.662;2022-10-26T01:04:13;11.40;;;6.97;;
64932;SDS011;51446;53.850;10.662;2022-10-26T01:06:40;11.03;;;6.50;;
64932;SDS011;51446;53.850;10.662;2022-10-26T01:09:06;10.25;;;6.53;;
64932;SDS011;51446;53.850;10.662;2022-10-26T01:11:33;13.90;;;6.80;;
64932;SDS011;51446;53.850;10.662;2022-10-26T01:13:59;12.00;;;6.80;;
64932;SDS011;51446;53.850;10.662;2022-10-26T01:22:18;10.00;;;6.40;;
64932;SDS011;51446;53.850;10.662;2022-10-26T01:27:31;15.25;;;7.20;;
64932;SDS011;51446;53.850;10.662;2022-10-26T01:37:40;12.25;;;7.40;;
64932;SDS011;51446;53.850;10.662;2022-10-26T01:40:13;11.07;;;6.78;;
64932;SDS011;51446;53.850;10.662;2022-10-26T01:42:47;7.97;;;5.80;;
64932;SDS011;51446;53.850;10.662;2022-10-26T01:45:16;7.75;;;5.88;;
64932;SDS011;51446;53.850;10.662;2022-10-26T01:47:42;12.32;;;6.60;;
64932;SDS011;51446;53.850;10.662;2022-10-26T01:50:09;8.73;;;6.55;;
64932;SDS011;51446;53.850;10.662;2022-10-26T01:52:35;13.68;;;7.45;;
64932;SDS011;51446;53.850;10.662;2022-10-26T01:55:03;9.53;;;7.23;;
64932;SDS011;51446;53.850;10.662;2022-10-26T01:57:31;13.23;;;7.45;;
64932;SDS011;51446;53.850;10.662;2022-10-26T02:02:47;12.70;;;7.50;;
64932;SDS011;51446;53.850;10.662;2022-10-26T02:05:40;12.82;;;7.45;;
64932;SDS011;51446;53.850;10.662;2022-10-26T02:08:33;12.18;;;7.28;;
64932;SDS011;51446;53.850;10.662;2022-10-26T02:11:13;10.38;;;6.60;;
64932;SDS011;51446;53.850;10.662;2022-10-26T02:16:42;10.00;;;7.30;;
64932;SDS011;51446;53.850;10.662;2022-10-26T02:19:24;10.95;;;6.70;;
64932;SDS011;51446;53.850;10.662;2022-10-26T02:21:53;14.55;;;8.70;;
64932;SDS011;51446;53.850;10.662;2022-10-26T02:24:24;12.35;;;7.43;;
64932;SDS011;51446;53.850;10.662;2022-10-26T02:26:52;11.55;;;7.20;;
64932;SDS011;51446;53.850;10.662;2022-10-26T02:29:19;9.88;;;7.10;;
64932;SDS011;51446;53.850;10.662;2022-10-26T02:31:47;10.30;;;6.70;;
64932;SDS011;51446;53.850;10.662;2022-10-26T02:34:17;8.50;;;6.22;;
64932;SDS011;51446;53.850;10.662;2022-10-26T02:36:46;9.50;;;6.90;;
64932;SDS011;51446;53.850;10.662;2022-10-26T02:39:15;13.38;;;7.10;;
64932;SDS011;51446;53.850;10.662;2022-10-26T02:41:43;12.52;;;7.07;;
64932;SDS011;51446;53.850;10.662;2022-10-26T02:44:18;12.23;;;7.68;;
64932;SDS011;51446;53.850;10.662;2022-10-26T02:46:49;16.65;;;7.93;;
64932;SDS011;51446;53.850;10.662;2022-10-26T02:49:16;12.35;;;7.35;;
64932;SDS011;51446;53.850;10.662;2022-10-26T02:52:01;9.85;;;6.72;;
64932;SDS011;51446;53.850;10.662;2022-10-26T02:54:43;11.57;;;7.25;;
64932;SDS011;51446;53.850;10.662;2022-10-26T02:57:16;11.18;;;7.05;;
64932;SDS011;51446;53.850;10.662;2022-10-26T02:59:47;13.23;;;7.47;;
64932;SDS011;51446;53.850;10.662;2022-10-26T03:02:14;11.13;;;7.47;;
64932;SDS011;51446;53.850;10.662;2022-10-26T03:04:41;12.45;;;7.90;;
64932;SDS011;51446;53.850;10.662;2022-10-26T03:07:07;10.95;;;7.72;;
64932;SDS011;51446;53.850;10.662;2022-10-26T03:09:32;10.93;;;7.13;;
64932;SDS011;51446;53.850;10.662;2022-10-26T03:11:57;8.37;;;6.93;;
64932;SDS011;51446;53.850;10.662;2022-10-26T03:14:22;14.13;;;8.57;;
64932;SDS011;51446;53.850;10.662;2022-10-26T03:16:47;12.23;;;7.60;;
64932;SDS011;51446;53.850;10.662;2022-10-26T03:19:13;11.23;;;6.87;;
64932;SDS011;51446;53.850;10.662;2022-10-26T03:21:38;10.53;;;6.57;;
64932;SDS011;51446;53.850;10.662;2022-10-26T03:24:03;11.73;;;6.77;;
64932;SDS011;51446;53.850;10.662;2022-10-26T03:26:29;10.67;;;7.13;;
64932;SDS011;51446;53.850;10.662;2022-10-26T03:28:54;10.93;;;6.83;;
64932;SDS011;51446;53.850;10.662;2022-10-26T03:31:19;12.50;;;9.03;;
64932;SDS011;51446;53.850;10.662;2022-10-26T03:33:45;13.03;;;8.10;;
64932;SDS011;51446;53.850;10.662;2022-10-26T03:36:10;11.40;;;7.70;;
64932;SDS011;51446;53.850;10.662;2022-10-26T03:38:35;15.60;;;9.13;;
64932;SDS011;51446;53.850;10.662;2022-10-26T03:41:00;13.90;;;7.67;;
64932;SDS011;51446;53.850;10.662;2022-10-26T03:43:26;15.90;;;8.45;;
64932;SDS011;51446;53.850;10.662;2022-10-26T03:45:51;14.10;;;8.25;;
64932;SDS011;51446;53.850;10.662;2022-10-26T03:48:17;15.57;;;8.10;;
64932;SDS011;51446;53.850;10.662;2022-10-26T03:50:42;15.30;;;8.70;;
64932;SDS011;51446;53.850;10.662;2022-10-26T03:53:07;16.20;;;8.80;;
64932;SDS011;51446;53.850;10.662;2022-10-26T03:55:33;16.17;;;8.17;;
64932;SDS011;51446;53.850;10.662;2022-10-26T03:57:58;13.83;;;8.27;;
64932;SDS011;51446;53.850;10.662;2022-10-26T04:00:23;14.53;;;7.70;;
64932;SDS011;51446;53.850;10.662;2022-10-26T04:02:55;14.73;;;8.40;;
64932;SDS011;51446;53.850;10.662;2022-10-26T04:05:23;10.60;;;7.93;;
64932;SDS011;51446;53.850;10.662;2022-10-26T04:07:56;13.43;;;8.02;;
64932;SDS011;51446;53.850;10.662;2022-10-26T04:10:24;12.90;;;8.40;;
64932;SDS011;51446;53.850;10.662;2022-10-26T04:12:50;12.55;;;8.00;;
64932;SDS011;51446;53.850;10.662;2022-10-26T04:15:16;15.77;;;8.20;;
64932;SDS011;51446;53.850;10.662;2022-10-26T04:17:43;14.60;;;7.50;;
64932;SDS011;51446;53.850;10.662;2022-10-26T04:20:09;12.40;;;8.40;;
64932;SDS011;51446;53.850;10.662;2022-10-26T04:22:35;16.98;;;8.73;;
64932;SDS011;51446;53.850;10.662;2022-10-26T04:25:01;14.70;;;8.60;;
64932;SDS011;51446;53.850;10.662;2022-10-26T04:27:26;10.55;;;7.60;;
64932;SDS011;51446;53.850;10.662;2022-10-26T04:29:52;13.17;;;7.77;;
64932;SDS011;51446;53.850;10.662;2022-10-26T04:32:17;13.03;;;8.00;;
64932;SDS011;51446;53.850;10.662;2022-10-26T04:34:42;11.73;;;7.93;;
64932;SDS011;51446;53.850;10.662;2022-10-26T04:37:07;14.60;;;9.27;;
64932;SDS011;51446;53.850;10.662;2022-10-26T04:39:33;10.90;;;7.27;;
64932;SDS011;51446;53.850;10.662;2022-10-26T04:41:58;13.47;;;8.40;;
64932;SDS011;51446;53.850;10.662;2022-10-26T04:44:23;19.37;;;9.13;;
64932;SDS011;51446;53.850;10.662;2022-10-26T04:46:48;11.83;;;8.47;;
64932;SDS011;51446;53.850;10.662;2022-10-26T04:49:14;15.47;;;8.47;;
64932;SDS011;51446;53.850;10.662;2022-10-26T04:51:39;12.60;;;7.40;;
64932;SDS011;51446;53.850;10.662;2022-10-26T04:54:04;11.57;;;7.90;;
64932;SDS011;51446;53.850;10.662;2022-10-26T04:56:30;11.43;;;7.72;;
64932;SDS011;51446;53.850;10.662;2022-10-26T04:58:55;13.50;;;7.93;;
64932;SDS011;51446;53.850;10.662;2022-10-26T05:01:20;14.60;;;8.33;;
64932;SDS011;51446;53.850;10.662;2022-10-26T05:03:49;12.83;;;7.33;;
64932;SDS011;51446;53.850;10.662;2022-10-26T05:06:20;16.73;;;7.53;;
64932;SDS011;51446;53.850;10.662;2022-10-26T05:08:46;11.88;;;7.95;;
64932;SDS011;51446;53.850;10.662;2022-10-26T05:11:11;13.53;;;7.40;;
64932;SDS011;51446;53.850;10.662;2022-10-26T05:13:37;11.18;;;7.40;;
64932;SDS011;51446;53.850;10.662;2022-10-26T05:16:02;12.33;;;7.67;;
64932;SDS011;51446;53.850;10.662;2022-10-26T05:18:28;11.57;;;7.57;;
64932;SDS011;51446;53.850;10.662;2022-10-26T05:20:53;12.93;;;8.33;;
64932;SDS011;51446;53.850;10.662;2022-10-26T05:23:19;12.53;;;7.57;;
64932;SDS011;51446;53.850;10.662;2022-10-26T05:25:45;12.18;;;7.70;;
64932;SDS011;51446;53.850;10.662;2022-10-26T05:28:11;11.50;;;7.20;;
64932;SDS011;51446;53.850;10.662;2022-10-26T05:30:37;10.02;;;7.32;;
64932;SDS011;51446;53.850;10.662;2022-10-26T05:33:07;12.57;;;8.93;;
64932;SDS011;51446;53.850;10.662;2022-10-26T05:35:34;13.65;;;8.45;;
64932;SDS011;51446;53.850;10.662;2022-10-26T05:38:01;15.90;;;8.93;;
64932;SDS011;51446;53.850;10.662;2022-10-26T05:40:31;15.93;;;9.38;;
64932;SDS011;51446;53.850;10.662;2022-10-26T05:42:59;12.27;;;8.93;;
64932;SDS011;51446;53.850;10.662;2022-10-26T05:45:25;14.18;;;8.85;;
64932;SDS011;51446;53.850;10.662;2022-10-26T05:47:51;16.80;;;8.97;;
64932;SDS011;51446;53.850;10.662;2022-10-26T05:50:16;16.27;;;9.17;;
64932;SDS011;51446;53.850;10.662;2022-10-26T05:52:42;13.83;;;8.40;;
64932;SDS011;51446;53.850;10.662;2022-10-26T05:55:09;16.75;;;8.38;;
64932;SDS011;51446;53.850;10.662;2022-10-26T05:57:37;12.52;;;8.38;;
64932;SDS011;51446;53.850;10.662;2022-10-26T06:00:05;18.17;;;8.90;;
64932;SDS011;51446;53.850;10.662;2022-10-26T06:02:57;11.63;;;8.60;;
64932;SDS011;51446;53.850;10.662;2022-10-26T06:08:18;13.32;;;8.43;;
64932;SDS011;51446;53.850;10.662;2022-10-26T06:10:45;15.65;;;8.82;;
64932;SDS011;51446;53.850;10.662;2022-10-26T06:13:10;16.40;;;8.87;;
64932;SDS011;51446;53.850;10.662;2022-10-26T06:15:38;16.63;;;10.10;;
64932;SDS011;51446;53.850;10.662;2022-10-26T06:23:54;21.95;;;11.35;;
64932;SDS011;51446;53.850;10.662;2022-10-26T06:26:50;31.42;;;10.98;;
64932;SDS011;51446;53.850;10.662;2022-10-26T06:32:39;24.13;;;12.65;;
64932;SDS011;51446;53.850;10.662;2022-10-26T06:37:53;25.80;;;11.30;;
64932;SDS011;51446;53.850;10.662;2022-10-26T06:40:20;20.90;;;11.02;;
64932;SDS011;51446;53.850;10.662;2022-10-26T06:42:47;18.23;;;11.02;;
64932;SDS011;51446;53.850;10.662;2022-10-26T06:45:13;17.10;;;10.50;;
64932;SDS011;51446;53.850;10.662;2022-10-26T06:47:59;64.57;;;10.77;;
64932;SDS011;51446;53.850;10.662;2022-10-26T06:50:39;20.42;;;10.75;;
64932;SDS011;51446;53.850;10.662;2022-10-26T06:55:52;24.73;;;10.70;;
64932;SDS011;51446;53.850;10.662;2022-10-26T06:58:20;52.22;;;12.32;;
64932;SDS011;51446;53.850;10.662;2022-10-26T07:00:50;28.73;;;11.57;;
64932;SDS011;51446;53.850;10.662;2022-10-26T07:03:18;15.77;;;10.90;;
64932;SDS011;51446;53.850;10.662;2022-10-26T07:05:43;19.50;;;9.93;;
64932;SDS011;51446;53.850;10.662;2022-10-26T07:08:09;68.45;;;11.85;;
64932;SDS011;51446;53.850;10.662;2022-10-26T07:10:34;32.23;;;10.13;;
64932;SDS011;51446;53.850;10.662;2022-10-26T07:13:03;19.48;;;10.40;;
64932;SDS011;51446;53.850;10.662;2022-10-26T07:15:32;16.73;;;10.48;;
64932;SDS011;51446;53.850;10.662;2022-10-26T07:17:58;18.38;;;10.77;;
64932;SDS011;51446;53.850;10.662;2022-10-26T07:20:24;14.10;;;9.80;;
64932;SDS011;51446;53.850;10.662;2022-10-26T07:22:52;11.37;;;8.27;;
64932;SDS011;51446;53.850;10.662;2022-10-26T07:25:19;9.48;;;6.63;;
64932;SDS011;51446;53.850;10.662;2022-10-26T07:27:44;9.53;;;7.00;;
64932;SDS011;51446;53.850;10.662;2022-10-26T07:30:10;9.48;;;7.15;;
64932;SDS011;51446;53.850;10.662;2022-10-26T07:32:35;8.77;;;6.50;;
64932;SDS011;51446;53.850;10.662;2022-10-26T07:35:01;8.63;;;6.50;;
64932;SDS011;51446;53.850;10.662;2022-10-26T07:37:26;8.07;;;5.90;;
64932;SDS011;51446;53.850;10.662;2022-10-26T07:39:52;10.32;;;6.45;;
64932;SDS011;51446;53.850;10.662;2022-10-26T07:42:17;9.00;;;5.80;;
64932;SDS011;51446;53.850;10.662;2022-10-26T07:44:42;9.57;;;6.70;;
64932;SDS011;51446;53.850;10.662;2022-10-26T07:47:08;8.40;;;6.53;;
64932;SDS011;51446;53.850;10.662;2022-10-26T07:49:33;9.90;;;6.03;;
64932;SDS011;51446;53.850;10.662;2022-10-26T07:51:58;7.73;;;6.00;;
64932;SDS011;51446;53.850;10.662;2022-10-26T07:54:24;10.70;;;6.60;;
64932;SDS011;51446;53.850;10.662;2022-10-26T07:56:49;8.97;;;6.20;;
64932;SDS011;51446;53.850;10.662;2022-10-26T07:59:14;7.77;;;6.37;;
64932;SDS011;51446;53.850;10.662;2022-10-26T08:01:41;8.05;;;6.22;;
64932;SDS011;51446;53.850;10.662;2022-10-26T08:04:06;7.63;;;5.90;;
64932;SDS011;51446;53.850;10.662;2022-10-26T08:06:31;12.27;;;6.20;;
64932;SDS011;51446;53.850;10.662;2022-10-26T08:08:57;8.00;;;6.07;;
64932;SDS011;51446;53.850;10.662;2022-10-26T08:11:22;8.40;;;5.57;;
64932;SDS011;51446;53.850;10.662;2022-10-26T08:13:50;7.43;;;5.70;;
64932;SDS011;51446;53.850;10.662;2022-10-26T08:16:16;10.35;;;5.68;;
64932;SDS011;51446;53.850;10.662;2022-10-26T08:18:41;8.77;;;6.33;;
64932;SDS011;51446;53.850;10.662;2022-10-26T08:21:09;7.63;;;6.00;;
64932;SDS011;51446;53.850;10.662;2022-10-26T08:23:35;6.05;;;4.85;;
64932;SDS011;51446;53.850;10.662;2022-10-26T08:26:01;8.60;;;5.20;;
64932;SDS011;51446;53.850;10.662;2022-10-26T08:28:27;7.30;;;5.05;;
64932;SDS011;51446;53.850;10.662;2022-10-26T08:30:53;6.60;;;5.50;;
64932;SDS011;51446;53.850;10.662;2022-10-26T08:33:19;6.55;;;4.97;;
64932;SDS011;51446;53.850;10.662;2022-10-26T08:35:45;6.53;;;5.05;;
64932;SDS011;51446;53.850;10.662;2022-10-26T08:38:10;8.47;;;5.37;;
64932;SDS011;51446;53.850;10.662;2022-10-26T08:40:37;7.53;;;4.70;;
64932;SDS011;51446;53.850;10.662;2022-10-26T08:43:11;5.90;;;4.68;;
64932;SDS011;51446;53.850;10.662;2022-10-26T08:45:45;10.57;;;5.63;;
64932;SDS011;51446;53.850;10.662;2022-10-26T08:48:17;8.50;;;5.50;;
64932;SDS011;51446;53.850;10.662;2022-10-26T08:50:50;8.52;;;4.80;;
64932;SDS011;51446;53.850;10.662;2022-10-26T08:53:26;9.88;;;5.60;;
64932;SDS011;51446;53.850;10.662;2022-10-26T08:58:52;6.25;;;4.82;;
64932;SDS011;51446;53.850;10.662;2022-10-26T09:01:21;6.23;;;4.20;;
64932;SDS011;51446;53.850;10.662;2022-10-26T09:03:47;6.00;;;4.60;;
64932;SDS011;51446;53.850;10.662;2022-10-26T09:09:02;9.63;;;5.40;;
64932;SDS011;51446;53.850;10.662;2022-10-26T09:14:37;6.47;;;4.30;;
64932;SDS011;51446;53.850;10.662;2022-10-26T09:17:15;7.50;;;5.13;;
64932;SDS011;51446;53.850;10.662;2022-10-26T09:22:48;9.32;;;4.20;;
64932;SDS011;51446;53.850;10.662;2022-10-26T09:25:22;9.38;;;4.07;;
64932;SDS011;51446;53.850;10.662;2022-10-26T09:27:53;12.05;;;4.18;;
64932;SDS011;51446;53.850;10.662;2022-10-26T09:30:21;11.07;;;3.67;;
64932;SDS011;51446;53.850;10.662;2022-10-26T09:33:00;7.88;;;3.97;;
64932;SDS011;51446;53.850;10.662;2022-10-26T09:35:40;9.63;;;4.18;;
64932;SDS011;51446;53.850;10.662;2022-10-26T09:38:22;7.40;;;3.85;;
64932;SDS011;51446;53.850;10.662;2022-10-26T09:40:59;7.17;;;3.90;;
64932;SDS011;51446;53.850;10.662;2022-10-26T09:43:42;6.35;;;3.65;;
64932;SDS011;51446;53.850;10.662;2022-10-26T09:46:39;6.05;;;3.60;;
64932;SDS011;51446;53.850;10.662;2022-10-26T09:49:07;7.30;;;3.40;;
64932;SDS011;51446;53.850;10.662;2022-10-26T09:51:37;4.80;;;2.90;;
64932;SDS011;51446;53.850;10.662;2022-10-26T09:54:04;5.63;;;2.53;;
64932;SDS011;51446;53.850;10.662;2022-10-26T09:56:39;13.70;;;3.60;;
64932;SDS011;51446;53.850;10.662;2022-10-26T09:59:06;4.88;;;2.70;;
64932;SDS011;51446;53.850;10.662;2022-10-26T10:01:32;8.57;;;3.00;;
64932;SDS011;51446;53.850;10.662;2022-10-26T10:09:27;7.03;;;2.85;;
64932;SDS011;51446;53.850;10.662;2022-10-26T10:11:56;6.33;;;2.70;;
64932;SDS011;51446;53.850;10.662;2022-10-26T10:17:01;5.60;;;2.70;;
64932;SDS011;51446;53.850;10.662;2022-10-26T10:19:29;5.40;;;2.30;;
64932;SDS011;51446;53.850;10.662;2022-10-26T10:21:57;6.35;;;2.25;;
64932;SDS011;51446;53.850;10.662;2022-10-26T10:24:34;8.75;;;2.40;;
64932;SDS011;51446;53.850;10.662;2022-10-26T10:29:42;5.10;;;2.60;;
64932;SDS011;51446;53.850;10.662;2022-10-26T10:32:13;4.20;;;2.03;;
64932;SDS011;51446;53.850;10.662;2022-10-26T10:34:40;6.53;;;2.50;;
64932;SDS011;51446;53.850;10.662;2022-10-26T10:37:05;5.53;;;2.20;;
64932;SDS011;51446;53.850;10.662;2022-10-26T10:39:34;6.40;;;2.33;;
64932;SDS011;51446;53.850;10.662;2022-10-26T10:42:03;6.05;;;2.22;;
64932;SDS011;51446;53.850;10.662;2022-10-26T10:44:30;5.18;;;2.05;;
64932;SDS011;51446;53.850;10.662;2022-10-26T10:47:01;5.35;;;1.85;;
64932;SDS011;51446;53.850;10.662;2022-10-26T10:49:28;10.50;;;1.90;;
64932;SDS011;51446;53.850;10.662;2022-10-26T10:51:55;3.17;;;1.60;;
64932;SDS011;51446;53.850;10.662;2022-10-26T11:00:00;7.57;;;2.15;;
64932;SDS011;51446;53.850;10.662;2022-10-26T11:11:17;7.45;;;2.08;;
64932;SDS011;51446;53.850;10.662;2022-10-26T11:13:23;8.60;;;2.10;;
64932;SDS011;51446;53.850;10.662;2022-10-26T11:15:58;7.00;;;1.80;;
64932;SDS011;51446;53.850;10.662;2022-10-26T11:18:35;7.13;;;2.10;;
64932;SDS011;51446;53.850;10.662;2022-10-26T11:23:45;5.95;;;1.45;;
64932;SDS011;51446;53.850;10.662;2022-10-26T11:26:16;4.45;;;1.88;;
64932;SDS011;51446;53.850;10.662;2022-10-26T11:31:24;7.20;;;1.90;;
64932;SDS011;51446;53.850;10.662;2022-10-26T11:36:58;7.03;;;2.10;;
64932;SDS011;51446;53.850;10.662;2022-10-26T11:44:58;5.03;;;2.60;;
64932;SDS011;51446;53.850;10.662;2022-10-26T11:47:35;5.75;;;2.65;;
64932;SDS011;51446;53.850;10.662;2022-10-26T11:50:15;5.18;;;2.15;;
64932;SDS011;51446;53.850;10.662;2022-10-26T11:55:15;6.72;;;2.20;;
64932;SDS011;51446;53.850;10.662;2022-10-26T11:57:42;4.70;;;1.93;;
64932;SDS011;51446;53.850;10.662;2022-10-26T12:02:45;5.82;;;2.40;;
64932;SDS011;51446;53.850;10.662;2022-10-26T12:07:39;9.33;;;2.73;;
64932;SDS011;51446;53.850;10.662;2022-10-26T12:10:18;5.35;;;2.42;;
64932;SDS011;51446;53.850;10.662;2022-10-26T12:12:49;4.20;;;2.40;;
64932;SDS011;51446;53.850;10.662;2022-10-26T12:18:02;4.88;;;2.22;;
64932;SDS011;51446;53.850;10.662;2022-10-26T12:23:20;4.55;;;2.63;;
64932;SDS011;51446;53.850;10.662;2022-10-26T12:25:47;6.17;;;2.20;;
64932;SDS011;51446;53.850;10.662;2022-10-26T12:28:54;4.05;;;2.00;;
64932;SDS011;51446;53.850;10.662;2022-10-26T12:34:00;7.10;;;2.35;;
64932;SDS011;51446;53.850;10.662;2022-10-26T12:39:56;5.28;;;2.30;;
64932;SDS011;51446;53.850;10.662;2022-10-26T12:47:01;5.43;;;2.63;;
64932;SDS011;51446;53.850;10.662;2022-10-26T12:58:17;8.23;;;2.83;;
64932;SDS011;51446;53.850;10.662;2022-10-26T13:03:32;4.83;;;2.20;;
64932;SDS011;51446;53.850;10.662;2022-10-26T13:06:14;7.05;;;2.22;;
64932;SDS011;51446;53.850;10.662;2022-10-26T13:08:50;4.50;;;2.15;;
64932;SDS011;51446;53.850;10.662;2022-10-26T13:11:33;5.18;;;2.22;;
64932;SDS011;51446;53.850;10.662;2022-10-26T13:14:03;4.10;;;1.67;;
64932;SDS011;51446;53.850;10.662;2022-10-26T13:16:31;5.83;;;1.70;;
64932;SDS011;51446;53.850;10.662;2022-10-26T13:18:57;4.78;;;2.08;;
64932;SDS011;51446;53.850;10.662;2022-10-26T13:21:24;4.53;;;1.65;;
64932;SDS011;51446;53.850;10.662;2022-10-26T13:26:20;10.68;;;2.47;;
64932;SDS011;51446;53.850;10.662;2022-10-26T13:28:49;6.07;;;2.17;;
64932;SDS011;51446;53.850;10.662;2022-10-26T13:31:51;5.40;;;1.95;;
64932;SDS011;51446;53.850;10.662;2022-10-26T13:36:41;5.25;;;1.50;;
64932;SDS011;51446;53.850;10.662;2022-10-26T13:39:12;7.10;;;2.40;;
64932;SDS011;51446;53.850;10.662;2022-10-26T13:41:42;5.23;;;2.10;;
64932;SDS011;51446;53.850;10.662;2022-10-26T13:44:15;4.25;;;2.10;;
64932;SDS011;51446;53.850;10.662;2022-10-26T13:47:05;6.38;;;2.33;;
64932;SDS011;51446;53.850;10.662;2022-10-26T13:49:53;4.70;;;2.42;;
64932;SDS011;51446;53.850;10.662;2022-10-26T13:52:28;4.35;;;2.03;;
64932;SDS011;51446;53.850;10.662;2022-10-26T13:55:02;6.10;;;1.70;;
64932;SDS011;51446;53.850;10.662;2022-10-26T13:57:38;4.63;;;2.20;;
64932;SDS011;51446;53.850;10.662;2022-10-26T14:00:07;4.00;;;2.30;;
64932;SDS011;51446;53.850;10.662;2022-10-26T14:02:40;4.13;;;2.00;;
64932;SDS011;51446;53.850;10.662;2022-10-26T14:05:10;3.42;;;1.73;;
64932;SDS011;51446;53.850;10.662;2022-10-26T14:10:03;8.80;;;2.30;;
64932;SDS011;51446;53.850;10.662;2022-10-26T14:12:29;4.20;;;1.90;;
64932;SDS011;51446;53.850;10.662;2022-10-26T14:15:14;4.50;;;2.17;;
64932;SDS011;51446;53.850;10.662;2022-10-26T14:17:41;2.97;;;1.83;;
64932;SDS011;51446;53.850;10.662;2022-10-26T14:20:10;5.07;;;2.10;;
64932;SDS011;51446;53.850;10.662;2022-10-26T14:22:42;4.78;;;1.70;;
64932;SDS011;51446;53.850;10.662;2022-10-26T14:25:18;3.97;;;1.57;;
64932;SDS011;51446;53.850;10.662;2022-10-26T14:27:45;4.10;;;1.70;;
64932;SDS011;51446;53.850;10.662;2022-10-26T14:30:21;5.77;;;1.93;;
64932;SDS011;51446;53.850;10.662;2022-10-26T14:32:51;3.90;;;1.50;;
64932;SDS011;51446;53.850;10.662;2022-10-26T14:35:17;4.00;;;2.00;;
64932;SDS011;51446;53.850;10.662;2022-10-26T14:37:59;4.00;;;1.70;;
64932;SDS011;51446;53.850;10.662;2022-10-26T14:40:26;5.93;;;1.75;;
64932;SDS011;51446;53.850;10.662;2022-10-26T14:42:57;5.18;;;1.90;;
64932;SDS011;51446;53.850;10.662;2022-10-26T14:45:27;3.97;;;2.03;;
64932;SDS011;51446;53.850;10.662;2022-10-26T14:47:55;5.67;;;1.93;;
64932;SDS011;51446;53.850;10.662;2022-10-26T14:50:22;7.38;;;2.10;;
64932;SDS011;51446;53.850;10.662;2022-10-26T14:52:49;4.85;;;1.63;;
64932;SDS011;51446;53.850;10.662;2022-10-26T14:55:16;4.07;;;1.70;;
64932;SDS011;51446;53.850;10.662;2022-10-26T14:57:43;5.50;;;1.93;;
64932;SDS011;51446;53.850;10.662;2022-10-26T15:02:47;3.70;;;1.77;;
64932;SDS011;51446;53.850;10.662;2022-10-26T15:05:24;3.30;;;1.52;;
64932;SDS011;51446;53.850;10.662;2022-10-26T15:07:51;8.05;;;2.17;;
64932;SDS011;51446;53.850;10.662;2022-10-26T15:13:07;4.38;;;1.85;;
64932;SDS011;51446;53.850;10.662;2022-10-26T15:15:33;3.58;;;2.05;;
64932;SDS011;51446;53.850;10.662;2022-10-26T15:17:59;5.00;;;2.35;;
64932;SDS011;51446;53.850;10.662;2022-10-26T15:20:26;5.47;;;2.37;;
64932;SDS011;51446;53.850;10.662;2022-10-26T15:22:56;5.20;;;2.42;;
64932;SDS011;51446;53.850;10.662;2022-10-26T15:25:24;5.85;;;1.85;;
64932;SDS011;51446;53.850;10.662;2022-10-26T15:27:51;6.18;;;2.45;;
64932;SDS011;51446;53.850;10.662;2022-10-26T15:30:21;4.40;;;2.20;;
64932;SDS011;51446;53.850;10.662;2022-10-26T15:32:49;6.20;;;2.00;;
64932;SDS011;51446;53.850;10.662;2022-10-26T15:37:44;6.32;;;2.60;;
64932;SDS011;51446;53.850;10.662;2022-10-26T15:40:10;5.82;;;2.10;;
64932;SDS011;51446;53.850;10.662;2022-10-26T15:42:36;7.00;;;2.70;;
64932;SDS011;51446;53.850;10.662;2022-10-26T15:45:04;4.65;;;2.45;;
64932;SDS011;51446;53.850;10.662;2022-10-26T15:47:40;4.53;;;2.80;;
64932;SDS011;51446;53.850;10.662;2022-10-26T15:50:07;9.87;;;2.80;;
64932;SDS011;51446;53.850;10.662;2022-10-26T15:52:36;7.45;;;2.42;;
64932;SDS011;51446;53.850;10.662;2022-10-26T15:55:02;5.22;;;2.50;;
64932;SDS011;51446;53.850;10.662;2022-10-26T15:57:27;4.57;;;2.03;;
64932;SDS011;51446;53.850;10.662;2022-10-26T15:59:52;6.67;;;2.10;;
64932;SDS011;51446;53.850;10.662;2022-10-26T16:02:17;5.30;;;2.27;;
64932;SDS011;51446;53.850;10.662;2022-10-26T16:04:43;5.73;;;2.37;;
64932;SDS011;51446;53.850;10.662;2022-10-26T16:07:12;7.23;;;2.40;;
64932;SDS011;51446;53.850;10.662;2022-10-26T16:09:39;6.80;;;2.60;;
64932;SDS011;51446;53.850;10.662;2022-10-26T16:12:06;9.27;;;2.72;;
64932;SDS011;51446;53.850;10.662;2022-10-26T16:14:34;4.97;;;2.30;;
64932;SDS011;51446;53.850;10.662;2022-10-26T16:16:59;5.00;;;2.97;;
64932;SDS011;51446;53.850;10.662;2022-10-26T16:19:24;6.43;;;4.50;;
64932;SDS011;51446;53.850;10.662;2022-10-26T16:21:50;8.00;;;5.40;;
64932;SDS011;51446;53.850;10.662;2022-10-26T16:24:15;11.00;;;7.17;;
64932;SDS011;51446;53.850;10.662;2022-10-26T16:26:41;7.80;;;4.70;;
64932;SDS011;51446;53.850;10.662;2022-10-26T16:29:06;7.30;;;3.40;;
64932;SDS011;51446;53.850;10.662;2022-10-26T16:31:31;4.63;;;3.47;;
64932;SDS011;51446;53.850;10.662;2022-10-26T16:33:56;10.73;;;4.93;;
64932;SDS011;51446;53.850;10.662;2022-10-26T16:36:22;7.50;;;4.67;;
64932;SDS011;51446;53.850;10.662;2022-10-26T16:38:47;9.57;;;3.37;;
64932;SDS011;51446;53.850;10.662;2022-10-26T16:41:12;5.53;;;3.03;;
64932;SDS011;51446;53.850;10.662;2022-10-26T16:43:41;7.88;;;2.97;;
64932;SDS011;51446;53.850;10.662;2022-10-26T16:48:35;10.95;;;3.15;;
64932;SDS011;51446;53.850;10.662;2022-10-26T16:51:13;6.28;;;2.85;;
64932;SDS011;51446;53.850;10.662;2022-10-26T16:53:45;7.03;;;3.20;;
64932;SDS011;51446;53.850;10.662;2022-10-26T16:56:12;5.65;;;2.70;;
64932;SDS011;51446;53.850;10.662;2022-10-26T16:58:42;7.53;;;3.45;;
64932;SDS011;51446;53.850;10.662;2022-10-26T17:01:08;10.03;;;3.27;;